PWSweather.com
Personal Weather Stations
Station Observations
MANRESA
Manresa Catalonia, ManresaES 08243

Manresa CataloniaManresaES 08243

Lat: 41.731, Lon: 1.834

Elevation: 824

Station Type: Oregon Scientífic WMR-200

Latest ConditionsUpdated 8:17:02 AM GMT+01:01 Sunday, Dec 16, 2018
Currently Today's Max Today's Min Today's Average
Temperature 44.2°F6.8°C 46.2°F7.9°C 43.7°F6.5°C 45.0°F7.2°C
Dew Point 37.8°F3.2°C 40.5°F4.7°C 37.2°F2.9°C 38.7°F3.7°C
Winds Calm Calm 9.4 mph -15.1 kmh - - 1.9 mph 3.1 kmh
Wind Gusts -- 9.8 mph15.8 kmh - -
Humidity 78% 83% 75% 78%
Pressure 30.01 in1016.3 mb 30.04 in1017.3 mb 29.96 in1014.6 mb -
Hour Temp Dew Point Humidity Winds Wind Gusts Pressure Precip Precip Rate Daily Precip Total
08:17 AM 44.2°F6.8°C 37.8°F3.2°C 78% Calm Calm -- 30.01 in1016.3 mb - 0.00 in0.0 mm 0.00 in0.0 mm
08:12 AM 43.9°F6.6°C 37.2°F2.9°C 77% 2.7 mph NE4.3 kmh NE -- 30.01 in1016.3 mb - 0.00 in0.0 mm 0.00 in0.0 mm
08:07 AM 44.1°F6.7°C 37.4°F3.0°C 77% 1.1 mph E1.8 kmh E 2.5 mph4.0 kmh 30.01 in1016.3 mb - 0.00 in0.0 mm 0.00 in0.0 mm
08:02 AM 44.2°F6.8°C 37.6°F3.1°C 77% Calm Calm -- 30.01 in1016.3 mb - 0.00 in0.0 mm 0.00 in0.0 mm
07:57 AM 44.4°F6.9°C 37.8°F3.2°C 77% 2.9 mph E4.7 kmh E 2.0 mph3.2 kmh 30.01 in1016.3 mb - 0.00 in0.0 mm 0.00 in0.0 mm
07:52 AM 44.4°F6.9°C 37.8°F3.2°C 77% Calm Calm -- 30.01 in1016.3 mb - 0.00 in0.0 mm 0.00 in0.0 mm
07:47 AM 44.4°F6.9°C 37.4°F3.0°C 76% Calm Calm -- 30.01 in1016.3 mb - 0.00 in0.0 mm 0.00 in0.0 mm
07:42 AM 44.6°F7.0°C 37.6°F3.1°C 76% Calm Calm -- 30.01 in1016.3 mb - 0.00 in0.0 mm 0.00 in0.0 mm
07:37 AM 44.8°F7.1°C 37.8°F3.2°C 76% Calm Calm -- 29.99 in1015.6 mb - 0.00 in0.0 mm 0.00 in0.0 mm
07:32 AM 45.1°F7.3°C 38.1°F3.4°C 76% Calm Calm -- 29.99 in1015.6 mb - 0.00 in0.0 mm 0.00 in0.0 mm
07:27 AM 45.3°F7.4°C 38.5°F3.6°C 77% Calm Calm -- 29.99 in1015.6 mb - 0.00 in0.0 mm 0.00 in0.0 mm
07:22 AM 45.5°F7.5°C 38.7°F3.7°C 77% Calm Calm -- 29.99 in1015.6 mb - 0.00 in0.0 mm 0.00 in0.0 mm
07:17 AM 45.7°F7.6°C 39.6°F4.2°C 79% 0.9 mph NE1.4 kmh NE -- 29.99 in1015.6 mb - 0.00 in0.0 mm 0.00 in0.0 mm
07:12 AM 45.9°F7.7°C 40.1°F4.5°C 80% Calm Calm -- 29.99 in1015.6 mb - 0.00 in0.0 mm 0.00 in0.0 mm
07:07 AM 45.3°F7.4°C 38.8°F3.8°C 78% Calm Calm -- 29.99 in1015.6 mb - 0.00 in0.0 mm 0.00 in0.0 mm
07:02 AM 45.1°F7.3°C 38.7°F3.7°C 78% Calm Calm -- 29.99 in1015.6 mb - 0.00 in0.0 mm 0.00 in0.0 mm
06:57 AM 45.1°F7.3°C 38.3°F3.5°C 77% Calm Calm -- 29.99 in1015.6 mb - 0.00 in0.0 mm 0.00 in0.0 mm
06:52 AM 45.1°F7.3°C 38.7°F3.7°C 78% 2.0 mph 3.2 kmh 1.6 mph2.6 kmh 29.99 in1015.6 mb - 0.00 in0.0 mm 0.00 in0.0 mm
06:47 AM 45.1°F7.3°C 38.7°F3.7°C 78% Calm Calm -- 29.99 in1015.6 mb - 0.00 in0.0 mm 0.00 in0.0 mm
06:42 AM 45.0°F7.2°C 38.1°F3.4°C 77% 2.7 mph NE4.3 kmh NE -- 29.99 in1015.6 mb - 0.00 in0.0 mm 0.00 in0.0 mm
06:37 AM 44.6°F7.0°C 37.6°F3.1°C 76% 1.3 mph NE2.1 kmh NE 1.1 mph1.8 kmh 29.99 in1015.6 mb - 0.00 in0.0 mm 0.00 in0.0 mm
06:32 AM 44.8°F7.1°C 37.4°F3.0°C 75% 2.9 mph E4.7 kmh E 2.0 mph3.2 kmh 29.99 in1015.6 mb - 0.00 in0.0 mm 0.00 in0.0 mm
06:27 AM 45.1°F7.3°C 38.1°F3.4°C 76% 2.7 mph E4.3 kmh E 2.0 mph3.2 kmh 29.99 in1015.6 mb - 0.00 in0.0 mm 0.00 in0.0 mm
06:22 AM 45.7°F7.6°C 38.8°F3.8°C 77% Calm Calm -- 29.99 in1015.6 mb - 0.00 in0.0 mm 0.00 in0.0 mm
06:17 AM 45.7°F7.6°C 38.8°F3.8°C 77% 1.3 mph E2.1 kmh E 1.6 mph2.6 kmh 29.99 in1015.6 mb - 0.00 in0.0 mm 0.00 in0.0 mm
06:12 AM 45.9°F7.7°C 39.4°F4.1°C 78% Calm Calm -- 29.99 in1015.6 mb - 0.00 in0.0 mm 0.00 in0.0 mm
06:07 AM 45.7°F7.6°C 38.8°F3.8°C 77% Calm Calm -- 29.99 in1015.6 mb - 0.00 in0.0 mm 0.00 in0.0 mm
06:02 AM 45.3°F7.4°C 38.5°F3.6°C 77% 3.4 mph NE5.5 kmh NE 1.6 mph2.6 kmh 29.99 in1015.6 mb - 0.00 in0.0 mm 0.00 in0.0 mm
05:57 AM 45.3°F7.4°C 38.5°F3.6°C 77% 6.3 mph NNE10.1 kmh NNE 5.8 mph9.3 kmh 29.99 in1015.6 mb - 0.00 in0.0 mm 0.00 in0.0 mm
05:52 AM 45.0°F7.2°C 37.9°F3.3°C 76% 5.4 mph 8.7 kmh 4.9 mph7.9 kmh 29.99 in1015.6 mb - 0.00 in0.0 mm 0.00 in0.0 mm
05:47 AM 45.1°F7.3°C 38.1°F3.4°C 76% 7.4 mph 11.9 kmh 5.6 mph9.0 kmh 29.99 in1015.6 mb - 0.00 in0.0 mm 0.00 in0.0 mm
05:42 AM 45.1°F7.3°C 38.1°F3.4°C 76% 7.6 mph NE12.2 kmh NE 5.6 mph9.0 kmh 29.99 in1015.6 mb - 0.00 in0.0 mm 0.00 in0.0 mm
05:37 AM 45.3°F7.4°C 38.5°F3.6°C 77% 7.2 mph NE11.6 kmh NE 7.4 mph11.9 kmh 29.96 in1014.6 mb - 0.00 in0.0 mm 0.00 in0.0 mm
05:32 AM 45.5°F7.5°C 39.0°F3.9°C 78% 5.4 mph NNE8.7 kmh NNE 4.0 mph6.4 kmh 29.96 in1014.6 mb - 0.00 in0.0 mm 0.00 in0.0 mm
05:27 AM 45.3°F7.4°C 39.2°F4.0°C 79% 3.6 mph E5.8 kmh E 2.9 mph4.7 kmh 29.96 in1014.6 mb - 0.00 in0.0 mm 0.00 in0.0 mm
05:22 AM 45.0°F7.2°C 38.8°F3.8°C 79% 6.5 mph NE10.5 kmh NE 6.0 mph9.7 kmh 29.99 in1015.6 mb - 0.00 in0.0 mm 0.00 in0.0 mm
05:17 AM 44.8°F7.1°C 38.3°F3.5°C 78% 4.5 mph E7.2 kmh E 3.4 mph5.5 kmh 29.99 in1015.6 mb - 0.00 in0.0 mm 0.00 in0.0 mm
05:12 AM 44.8°F7.1°C 38.3°F3.5°C 78% 3.8 mph ENE6.1 kmh ENE 3.6 mph5.8 kmh 29.99 in1015.6 mb - 0.00 in0.0 mm 0.00 in0.0 mm
05:07 AM 44.8°F7.1°C 37.9°F3.3°C 77% 5.8 mph E9.3 kmh E 6.3 mph10.1 kmh 29.99 in1015.6 mb - 0.00 in0.0 mm 0.00 in0.0 mm
05:02 AM 44.8°F7.1°C 37.9°F3.3°C 77% 2.0 mph NE3.2 kmh NE 4.9 mph7.9 kmh 29.99 in1015.6 mb - 0.00 in0.0 mm 0.00 in0.0 mm
04:57 AM 44.8°F7.1°C 37.9°F3.3°C 77% 5.8 mph E9.3 kmh E 7.4 mph11.9 kmh 29.99 in1015.6 mb - 0.00 in0.0 mm 0.00 in0.0 mm
04:52 AM 45.0°F7.2°C 37.9°F3.3°C 76% Calm Calm 3.6 mph5.8 kmh 29.99 in1015.6 mb - 0.00 in0.0 mm 0.00 in0.0 mm
04:47 AM 45.3°F7.4°C 38.3°F3.5°C 76% 4.0 mph E6.4 kmh E 4.0 mph6.4 kmh 29.99 in1015.6 mb - 0.00 in0.0 mm 0.00 in0.0 mm
04:42 AM 45.5°F7.5°C 38.7°F3.7°C 77% 3.1 mph E5.0 kmh E 3.4 mph5.5 kmh 29.99 in1015.6 mb - 0.00 in0.0 mm 0.00 in0.0 mm
04:37 AM 45.5°F7.5°C 38.7°F3.7°C 77% 3.8 mph NE6.1 kmh NE 4.3 mph6.9 kmh 29.99 in1015.6 mb - 0.00 in0.0 mm 0.00 in0.0 mm
04:32 AM 45.9°F7.7°C 39.4°F4.1°C 78% 6.3 mph NE10.1 kmh NE 6.3 mph10.1 kmh 29.99 in1015.6 mb - 0.00 in0.0 mm 0.00 in0.0 mm
04:27 AM 46.0°F7.8°C 40.3°F4.6°C 80% 4.3 mph NE6.9 kmh NE 3.4 mph5.5 kmh 29.99 in1015.6 mb - 0.00 in0.0 mm 0.00 in0.0 mm
04:22 AM 45.9°F7.7°C 40.1°F4.5°C 80% 3.6 mph NE5.8 kmh NE 6.3 mph10.1 kmh 30.01 in1016.3 mb - 0.00 in0.0 mm 0.00 in0.0 mm
04:17 AM 45.3°F7.4°C 38.8°F3.8°C 78% 1.6 mph NE2.6 kmh NE -- 30.01 in1016.3 mb - 0.00 in0.0 mm 0.00 in0.0 mm
04:12 AM 45.0°F7.2°C 38.1°F3.4°C 77% 5.4 mph E8.7 kmh E 6.3 mph10.1 kmh 30.01 in1016.3 mb - 0.00 in0.0 mm 0.00 in0.0 mm
04:07 AM 45.3°F7.4°C 38.5°F3.6°C 77% 2.0 mph E3.2 kmh E 4.9 mph7.9 kmh 30.01 in1016.3 mb - 0.00 in0.0 mm 0.00 in0.0 mm
04:02 AM 45.5°F7.5°C 38.7°F3.7°C 77% 5.6 mph E9.0 kmh E 6.0 mph9.7 kmh 30.01 in1016.3 mb - 0.00 in0.0 mm 0.00 in0.0 mm
03:57 AM 46.0°F7.8°C 39.9°F4.4°C 79% Calm Calm -- 30.01 in1016.3 mb - 0.00 in0.0 mm 0.00 in0.0 mm
03:52 AM 46.2°F7.9°C 40.5°F4.7°C 80% Calm Calm -- 30.01 in1016.3 mb - 0.00 in0.0 mm 0.00 in0.0 mm
03:47 AM 46.0°F7.8°C 40.3°F4.6°C 80% Calm Calm -- 30.01 in1016.3 mb - 0.00 in0.0 mm 0.00 in0.0 mm
03:42 AM 45.9°F7.7°C 40.1°F4.5°C 80% 4.9 mph NE7.9 kmh NE 5.4 mph8.7 kmh 30.01 in1016.3 mb - 0.00 in0.0 mm 0.00 in0.0 mm
03:37 AM 45.5°F7.5°C 39.7°F4.3°C 80% 4.5 mph NE7.2 kmh NE 5.4 mph8.7 kmh 30.01 in1016.3 mb - 0.00 in0.0 mm 0.00 in0.0 mm
03:32 AM 45.5°F7.5°C 39.4°F4.1°C 79% 4.3 mph NE6.9 kmh NE 2.7 mph4.3 kmh 30.01 in1016.3 mb - 0.00 in0.0 mm 0.00 in0.0 mm
03:27 AM 45.7°F7.6°C 39.9°F4.4°C 80% 3.1 mph NE5.0 kmh NE 5.6 mph9.0 kmh 30.01 in1016.3 mb - 0.00 in0.0 mm 0.00 in0.0 mm
03:22 AM 45.5°F7.5°C 39.7°F4.3°C 80% Calm Calm -- 30.01 in1016.3 mb - 0.00 in0.0 mm 0.00 in0.0 mm
03:17 AM 45.5°F7.5°C 40.1°F4.5°C 81% Calm Calm -- 30.01 in1016.3 mb - 0.00 in0.0 mm 0.00 in0.0 mm
03:12 AM 45.3°F7.4°C 39.6°F4.2°C 80% 3.1 mph NE5.0 kmh NE 3.1 mph5.0 kmh 30.01 in1016.3 mb - 0.00 in0.0 mm 0.00 in0.0 mm
03:07 AM 45.3°F7.4°C 39.6°F4.2°C 80% 4.0 mph NE6.4 kmh NE 6.5 mph10.5 kmh 30.01 in1016.3 mb - 0.00 in0.0 mm 0.00 in0.0 mm
03:02 AM 45.3°F7.4°C 39.6°F4.2°C 80% Calm Calm -- 30.01 in1016.3 mb - 0.00 in0.0 mm 0.00 in0.0 mm
02:57 AM 45.3°F7.4°C 39.9°F4.4°C 81% Calm Calm -- 30.01 in1016.3 mb - 0.00 in0.0 mm 0.00 in0.0 mm
02:52 AM 45.1°F7.3°C 39.7°F4.3°C 81% Calm Calm -- 29.99 in1015.6 mb - 0.00 in0.0 mm 0.00 in0.0 mm
02:47 AM 44.8°F7.1°C 38.7°F3.7°C 79% Calm Calm 0.9 mph1.4 kmh 29.99 in1015.6 mb - 0.00 in0.0 mm 0.00 in0.0 mm
02:42 AM 45.1°F7.3°C 39.4°F4.1°C 80% Calm Calm -- 29.99 in1015.6 mb - 0.00 in0.0 mm 0.00 in0.0 mm
02:37 AM 45.1°F7.3°C 39.7°F4.3°C 81% 1.1 mph NE1.8 kmh NE 1.6 mph2.6 kmh 29.99 in1015.6 mb - 0.00 in0.0 mm 0.00 in0.0 mm
02:32 AM 45.3°F7.4°C 40.1°F4.5°C 82% 2.5 mph 4.0 kmh 3.1 mph5.0 kmh 29.99 in1015.6 mb - 0.00 in0.0 mm 0.00 in0.0 mm
02:27 AM 45.3°F7.4°C 40.5°F4.7°C 83% 9.4 mph E15.1 kmh E 9.8 mph15.8 kmh 29.99 in1015.6 mb - 0.00 in0.0 mm 0.00 in0.0 mm
02:22 AM 44.6°F7.0°C 39.4°F4.1°C 82% Calm Calm 4.3 mph6.9 kmh 30.01 in1016.3 mb - 0.00 in0.0 mm 0.00 in0.0 mm
02:17 AM 44.6°F7.0°C 39.2°F4.0°C 81% Calm Calm -- 30.01 in1016.3 mb - 0.00 in0.0 mm 0.00 in0.0 mm
02:12 AM 44.8°F7.1°C 39.6°F4.2°C 82% Calm Calm -- 30.01 in1016.3 mb - 0.00 in0.0 mm 0.00 in0.0 mm
02:07 AM 44.4°F6.9°C 39.2°F4.0°C 82% Calm Calm -- 30.01 in1016.3 mb - 0.00 in0.0 mm 0.00 in0.0 mm
02:02 AM 43.9°F6.6°C 38.1°F3.4°C 80% 3.4 mph NE5.5 kmh NE 3.1 mph5.0 kmh 30.01 in1016.3 mb - 0.00 in0.0 mm 0.00 in0.0 mm
01:57 AM 43.7°F6.5°C 37.9°F3.3°C 80% Calm Calm 4.0 mph6.4 kmh 30.01 in1016.3 mb - 0.00 in0.0 mm 0.00 in0.0 mm
01:52 AM 44.1°F6.7°C 38.3°F3.5°C 80% 2.2 mph SE3.5 kmh SE 2.2 mph3.5 kmh 30.01 in1016.3 mb - 0.00 in0.0 mm 0.00 in0.0 mm
01:47 AM 44.1°F6.7°C 38.7°F3.7°C 81% Calm Calm -- 30.01 in1016.3 mb - 0.00 in0.0 mm 0.00 in0.0 mm
01:42 AM 43.9°F6.6°C 38.1°F3.4°C 80% Calm Calm -- 30.01 in1016.3 mb - 0.00 in0.0 mm 0.00 in0.0 mm
01:37 AM 44.1°F6.7°C 38.3°F3.5°C 80% Calm Calm -- 30.01 in1016.3 mb - 0.00 in0.0 mm 0.00 in0.0 mm
01:32 AM 44.1°F6.7°C 38.3°F3.5°C 80% Calm Calm -- 30.01 in1016.3 mb - 0.00 in0.0 mm 0.00 in0.0 mm
01:27 AM 43.7°F6.5°C 37.9°F3.3°C 80% Calm Calm -- 30.01 in1016.3 mb - 0.00 in0.0 mm 0.00 in0.0 mm
01:22 AM 44.1°F6.7°C 38.7°F3.7°C 81% Calm Calm -- 30.01 in1016.3 mb - 0.00 in0.0 mm 0.00 in0.0 mm
01:17 AM 43.7°F6.5°C 37.6°F3.1°C 79% Calm Calm -- 30.01 in1016.3 mb - 0.00 in0.0 mm 0.00 in0.0 mm
01:12 AM 43.7°F6.5°C 37.9°F3.3°C 80% Calm Calm -- 30.01 in1016.3 mb - 0.00 in0.0 mm 0.00 in0.0 mm
01:07 AM 44.1°F6.7°C 37.9°F3.3°C 79% 0.9 mph E1.4 kmh E 3.1 mph5.0 kmh 30.04 in1017.3 mb - 0.00 in0.0 mm 0.00 in0.0 mm
01:02 AM 44.2°F6.8°C 38.5°F3.6°C 80% 0.9 mph NE1.4 kmh NE -- 30.04 in1017.3 mb - 0.00 in0.0 mm 0.00 in0.0 mm
12:57 AM 44.1°F6.7°C 37.9°F3.3°C 79% Calm Calm -- 30.04 in1017.3 mb - 0.00 in0.0 mm 0.00 in0.0 mm
12:52 AM 44.6°F7.0°C 38.5°F3.6°C 79% Calm Calm -- 30.04 in1017.3 mb - 0.00 in0.0 mm 0.00 in0.0 mm
12:47 AM 44.4°F6.9°C 38.7°F3.7°C 80% Calm Calm 2.7 mph4.3 kmh 30.04 in1017.3 mb - 0.00 in0.0 mm 0.00 in0.0 mm
12:42 AM 44.2°F6.8°C 38.1°F3.4°C 79% 1.6 mph 2.6 kmh 2.9 mph4.7 kmh 30.04 in1017.3 mb - 0.00 in0.0 mm 0.00 in0.0 mm
12:37 AM 44.8°F7.1°C 38.7°F3.7°C 79% Calm Calm -- 30.04 in1017.3 mb - 0.00 in0.0 mm 0.00 in0.0 mm
12:32 AM 44.6°F7.0°C 37.9°F3.3°C 77% Calm Calm -- 30.04 in1017.3 mb - 0.00 in0.0 mm 0.00 in0.0 mm
12:27 AM 44.6°F7.0°C 37.9°F3.3°C 77% 2.7 mph 4.3 kmh 3.1 mph5.0 kmh 30.04 in1017.3 mb - 0.00 in0.0 mm 0.00 in0.0 mm
12:22 AM 44.8°F7.1°C 37.9°F3.3°C 77% 4.3 mph 6.9 kmh 4.5 mph7.2 kmh 30.04 in1017.3 mb - 0.00 in0.0 mm 0.00 in0.0 mm
12:17 AM 45.3°F7.4°C 38.5°F3.6°C 77% 3.6 mph NE5.8 kmh NE 3.1 mph5.0 kmh 30.04 in1017.3 mb - 0.00 in0.0 mm 0.00 in0.0 mm
12:12 AM 45.3°F7.4°C 38.3°F3.5°C 76% Calm Calm -- 30.04 in1017.3 mb - 0.00 in0.0 mm 0.00 in0.0 mm
12:07 AM 45.3°F7.4°C 38.5°F3.6°C 77% Calm Calm -- 30.04 in1017.3 mb - 0.00 in0.0 mm 0.00 in0.0 mm
12:02 AM 45.3°F7.4°C 38.3°F3.5°C 76% Calm Calm -- 30.04 in1017.3 mb - 0.00 in0.0 mm 0.00 in0.0 mm